Terminal Aerodrome Forecast
Issued by NWS Buffalo, NY

Home | Current Version | Previous Version | Text Only | Print | Product List | Glossary On
Versions: 1 2 3 4 5 6 7 8 9 10 11 12 13 14 15 16 17 18 19 20 21 22 23 24
095
FTUS41 KBUF 191725
TAFROC
TAF
KROC 191725Z 1918/2018 24019G24KT P6SM FEW140 BKN210
     FM192100 25015G22KT P6SM SCT050
     FM200000 25012G22KT P6SM FEW250
     FM200300 26009KT P6SM FEW250=

USA.gov is the U.S. government's official web portal to all federal, state and local government web resources and services.